Time;durP1;ratioP1;P1;durP2;ratioP2;P2;SDS_P1;SDS_P2;PMS_P1;PMS_P2;Temp;Humidity;BMP_temperature;BMP_pressure;BME280_temperature;BME280_humidity;BME280_pressure;Samples;Min_cycle;Max_cycle;Signal;HPM_P1;HPM_P2
2022/03/19 00:00:23;;;;;;;26.60;8.93;;;5.40;90.20;;;;;;5011649;28;20041;-42
2022/03/19 00:02:52;;;;;;;14.80;7.18;;;5.40;90.20;;;;;;5010177;28;20048;-42
2022/03/19 00:05:19;;;;;;;23.10;7.80;;;5.40;90.20;;;;;;5010156;28;20036;-42
2022/03/19 00:07:46;;;;;;;18.40;7.97;;;5.40;90.20;;;;;;5011141;28;20033;-42
2022/03/19 00:10:15;;;;;;;24.10;8.50;;;5.40;90.20;;;;;;5010509;28;20057;-41
2022/03/19 00:12:42;;;;;;;21.80;11.25;;;5.40;90.20;;;;;;5010566;28;20128;-42
2022/03/19 00:15:10;;;;;;;18.35;9.13;;;5.40;90.20;;;;;;5003622;28;20033;-41
2022/03/19 00:17:37;;;;;;;21.00;9.82;;;5.40;90.20;;;;;;5010804;28;20344;-44
2022/03/19 00:20:05;;;;;;;21.77;9.02;;;5.40;90.20;;;;;;5010260;28;20030;-42
2022/03/19 00:22:32;;;;;;;13.75;8.35;;;5.40;90.20;;;;;;5009543;28;20062;-41
2022/03/19 00:24:59;;;;;;;18.58;9.93;;;5.40;90.20;;;;;;4994255;28;20125;-41
2022/03/19 00:27:29;;;;;;;24.27;8.98;;;5.40;90.10;;;;;;5009929;28;20045;-41
2022/03/19 00:29:55;;;;;;;17.52;9.13;;;5.30;90.10;;;;;;5011103;28;20113;-44
2022/03/19 00:32:24;;;;;;;20.25;8.18;;;5.20;89.90;;;;;;5011046;28;20110;-42
2022/03/19 00:34:50;;;;;;;21.67;6.95;;;5.20;89.90;;;;;;5010293;28;20033;-43
2022/03/19 00:37:16;;;;;;;17.15;6.68;;;5.20;89.90;;;;;;5010896;28;20092;-42
2022/03/19 00:39:41;;;;;;;16.95;7.55;;;5.20;89.90;;;;;;5010501;28;20045;-42
2022/03/19 00:42:07;;;;;;;31.90;8.50;;;5.10;89.80;;;;;;5009781;28;20114;-41
2022/03/19 00:44:36;;;;;;;17.15;6.18;;;5.10;89.70;;;;;;5010766;28;20044;-42
2022/03/19 00:47:05;;;;;;;22.25;7.10;;;5.10;89.60;;;;;;5010942;28;20029;-44
2022/03/19 00:49:33;;;;;;;18.58;7.07;;;5.10;89.70;;;;;;5010461;28;20049;-42
2022/03/19 00:52:00;;;;;;;17.13;7.28;;;5.10;89.70;;;;;;5009943;28;20128;-42
2022/03/19 00:54:26;;;;;;;19.10;8.15;;;5.10;89.60;;;;;;5010683;28;20096;-42
2022/03/19 00:56:52;;;;;;;22.30;7.97;;;5.10;89.50;;;;;;5010103;28;20033;-44
2022/03/19 00:59:19;;;;;;;19.65;7.97;;;5.00;89.40;;;;;;5010191;28;20452;-42
2022/03/19 01:01:44;;;;;;;22.73;6.90;;;5.00;89.30;;;;;;5008204;28;20469;-45
2022/03/19 01:04:11;;;;;;;23.98;8.63;;;5.00;89.20;;;;;;5010529;28;20073;-42
2022/03/19 01:06:37;;;;;;;27.17;8.23;;;5.00;89.20;;;;;;5010273;28;20037;-43
2022/03/19 01:09:05;;;;;;;16.80;7.85;;;4.90;89.20;;;;;;5009445;28;20030;-42
2022/03/19 01:11:32;;;;;;;15.25;6.30;;;4.90;89.20;;;;;;5008969;28;20034;-43
2022/03/19 01:13:58;;;;;;;17.30;7.57;;;4.90;89.10;;;;;;5007471;28;20054;-42
2022/03/19 01:16:28;;;;;;;25.15;9.35;;;5.00;89.20;;;;;;5008843;28;20114;-43
2022/03/19 01:18:56;;;;;;;25.52;8.45;;;4.90;89.10;;;;;;5008778;28;20026;-45
2022/03/19 01:21:23;;;;;;;18.90;7.30;;;4.90;89.00;;;;;;5010185;28;20038;-43
2022/03/19 01:23:55;;;;;;;20.67;8.32;;;4.90;89.00;;;;;;5010675;28;20347;-43
2022/03/19 01:26:22;;;;;;;19.77;8.68;;;4.90;89.10;;;;;;5009544;28;20034;-46
2022/03/19 01:28:48;;;;;;;19.63;7.78;;;4.90;89.00;;;;;;5010207;28;20026;-42
2022/03/19 01:31:15;;;;;;;15.52;7.65;;;4.90;89.00;;;;;;5008940;28;20522;-42
2022/03/19 01:33:42;;;;;;;14.15;7.22;;;4.90;88.80;;;;;;5009270;28;20040;-44
2022/03/19 01:36:09;;;;;;;27.10;9.32;;;4.80;88.80;;;;;;5009315;28;20016;-44
2022/03/19 01:38:37;;;;;;;19.95;7.65;;;4.70;88.60;;;;;;4990507;28;20097;-42
2022/03/19 01:41:05;;;;;;;18.70;7.70;;;4.70;88.70;;;;;;5008260;28;20064;-42
2022/03/19 01:43:35;;;;;;;24.85;8.75;;;4.60;88.50;;;;;;5009985;28;20086;-42
2022/03/19 01:46:03;;;;;;;20.45;8.02;;;4.50;88.40;;;;;;5008854;28;20038;-43
2022/03/19 01:48:28;;;;;;;17.45;7.25;;;4.50;88.50;;;;;;5009878;28;20026;-44
2022/03/19 01:50:58;;;;;;;17.23;6.85;;;4.50;88.60;;;;;;5008761;28;20462;-44
2022/03/19 01:53:24;;;;;;;15.38;7.60;;;4.50;88.50;;;;;;5009835;28;20037;-44
2022/03/19 01:55:52;;;;;;;13.50;7.43;;;4.40;88.30;;;;;;5009227;28;20022;-43
2022/03/19 01:58:20;;;;;;;12.95;7.32;;;4.40;88.20;;;;;;5008963;28;20065;-46
2022/03/19 02:00:47;;;;;;;17.52;7.03;;;4.20;88.10;;;;;;5008722;28;20076;-43
2022/03/19 02:03:14;;;;;;;14.30;6.85;;;4.10;88.00;;;;;;5010239;28;20038;-44
2022/03/19 02:05:39;;;;;;;15.77;7.38;;;4.00;87.90;;;;;;5009436;28;20088;-44
2022/03/19 02:08:06;;;;;;;16.05;7.53;;;4.00;87.80;;;;;;5009698;28;20038;-44
2022/03/19 02:10:34;;;;;;;12.60;7.28;;;3.90;87.70;;;;;;5009646;28;20502;-44
2022/03/19 02:13:02;;;;;;;14.60;6.78;;;3.80;87.70;;;;;;5009713;28;20066;-43
2022/03/19 02:15:29;;;;;;;14.00;6.93;;;3.70;87.60;;;;;;5019810;28;20029;-43
2022/03/19 02:17:58;;;;;;;15.18;7.22;;;3.70;87.70;;;;;;5009648;28;20365;-43
2022/03/19 02:20:26;;;;;;;13.05;6.90;;;3.60;87.60;;;;;;5009470;28;20104;-43
2022/03/19 02:25:40;;;;;;;14.10;6.93;;;3.50;87.90;;;;;;5012368;28;20044;-44
2022/03/19 02:28:09;;;;;;;13.35;7.47;;;3.50;87.90;;;;;;5013490;28;20080;-44
2022/03/19 02:30:39;;;;;;;18.40;7.85;;;3.50;87.70;;;;;;5013025;28;20029;-42
2022/03/19 02:33:06;;;;;;;13.43;7.30;;;3.40;87.70;;;;;;4996524;28;20458;-41
2022/03/19 02:35:33;;;;;;;14.93;7.97;;;3.40;88.00;;;;;;5012364;28;20036;-42
2022/03/19 02:38:00;;;;;;;19.70;9.20;;;3.40;88.00;;;;;;5012547;28;20049;-42
2022/03/19 02:40:26;;;;;;;18.35;8.07;;;3.40;88.10;;;;;;5012560;28;20462;-41
2022/03/19 02:42:56;;;;;;;13.02;6.72;;;3.40;87.90;;;;;;5011784;28;20041;-41
2022/03/19 02:45:25;;;;;;;14.90;6.88;;;3.40;87.80;;;;;;5026369;28;20029;-42
2022/03/19 02:47:59;;;;;;;16.08;7.15;;;3.30;87.60;;;;;;5012592;28;20021;-42
2022/03/19 02:50:44;;;;;;;14.00;7.47;;;3.30;87.70;;;;;;4993966;28;20038;-42
2022/03/19 02:53:11;;;;;;;13.65;7.55;;;3.30;87.80;;;;;;5012441;28;20084;-43
2022/03/19 02:55:41;;;;;;;14.63;6.97;;;3.30;87.80;;;;;;5012579;28;20018;-44
2022/03/19 02:58:08;;;;;;;15.43;8.00;;;3.40;88.10;;;;;;4979114;28;20027;-43
2022/03/19 03:00:36;;;;;;;22.90;8.15;;;3.40;88.00;;;;;;5012701;28;20084;-43
2022/03/19 03:03:04;;;;;;;21.35;10.10;;;3.40;88.20;;;;;;5011418;28;20033;-43
2022/03/19 03:05:31;;;;;;;14.20;9.27;;;3.50;88.60;;;;;;5011964;28;20130;-43
2022/03/19 03:07:59;;;;;;;23.73;8.57;;;3.60;88.70;;;;;;5012430;28;20073;-44
2022/03/19 03:10:27;;;;;;;16.80;9.15;;;3.60;88.50;;;;;;5012285;28;20041;-42
2022/03/19 03:12:54;;;;;;;28.13;10.15;;;3.70;89.00;;;;;;5012235;28;20093;-43
2022/03/19 03:15:23;;;;;;;18.23;9.82;;;3.90;89.50;;;;;;5011371;28;20022;-43
2022/03/19 03:17:51;;;;;;;19.73;9.52;;;3.90;89.50;;;;;;5012715;28;20026;-46
2022/03/19 03:20:16;;;;;;;14.63;8.85;;;4.00;89.60;;;;;;5012010;28;20045;-44
2022/03/19 03:22:48;;;;;;;21.50;9.45;;;4.10;89.70;;;;;;5011324;28;20359;-46
2022/03/19 03:25:15;;;;;;;17.95;10.27;;;4.10;89.60;;;;;;5012128;28;20025;-43
2022/03/19 03:27:43;;;;;;;21.80;9.90;;;4.10;89.50;;;;;;5012493;28;20069;-47
2022/03/19 03:30:09;;;;;;;19.50;9.65;;;4.10;89.60;;;;;;5010838;28;20030;-44
2022/03/19 03:32:37;;;;;;;17.70;8.95;;;4.10;89.40;;;;;;5011937;28;20498;-43
2022/03/19 03:35:02;;;;;;;16.67;10.15;;;4.10;89.50;;;;;;5011961;28;20083;-45
2022/03/19 03:37:29;;;;;;;22.13;10.43;;;4.10;89.60;;;;;;5011043;28;20026;-46
2022/03/19 03:39:56;;;;;;;23.08;9.57;;;4.10;89.60;;;;;;5012039;28;20076;-45
2022/03/19 03:42:23;;;;;;;15.95;9.38;;;4.10;89.50;;;;;;5012173;28;20029;-46
2022/03/19 03:44:54;;;;;;;27.92;11.52;;;4.00;89.30;;;;;;5011978;28;20026;-45
2022/03/19 03:47:20;;;;;;;24.30;9.18;;;4.00;89.40;;;;;;5011478;28;20034;-45
2022/03/19 03:49:47;;;;;;;22.35;8.95;;;4.20;89.80;;;;;;5011740;28;20038;-46
2022/03/19 03:52:14;;;;;;;23.98;8.40;;;4.20;89.80;;;;;;5011654;28;20111;-46
2022/03/19 03:54:41;;;;;;;17.27;7.43;;;4.30;89.90;;;;;;5010992;28;20375;-45
2022/03/19 03:57:06;;;;;;;16.25;7.10;;;4.40;89.70;;;;;;5011613;28;20030;-46
2022/03/19 03:59:35;;;;;;;26.45;7.40;;;4.40;89.50;;;;;;5011540;28;20033;-46
2022/03/19 04:02:01;;;;;;;14.80;7.82;;;4.40;89.40;;;;;;5010563;28;20048;-46
2022/03/19 04:04:28;;;;;;;19.35;7.20;;;4.50;89.20;;;;;;5011968;28;20443;-46
2022/03/19 04:06:55;;;;;;;20.42;7.07;;;4.60;88.90;;;;;;5010610;28;20030;-46
2022/03/19 04:09:24;;;;;;;30.10;7.63;;;4.60;88.90;;;;;;5010478;28;20040;-47
2022/03/19 04:11:51;;;;;;;22.58;7.65;;;4.60;88.70;;;;;;5010241;28;20041;-49
2022/03/19 04:14:20;;;;;;;18.83;7.93;;;4.60;88.60;;;;;;5011105;28;20054;-47
2022/03/19 04:16:47;;;;;;;25.52;8.00;;;4.60;88.50;;;;;;5011621;28;20040;-48
2022/03/19 04:19:14;;;;;;;21.38;7.28;;;4.60;88.30;;;;;;5011259;28;20046;-47
2022/03/19 04:21:41;;;;;;;16.85;7.95;;;4.60;88.20;;;;;;5011512;28;20032;-47
2022/03/19 04:24:11;;;;;;;15.73;6.55;;;4.60;88.20;;;;;;5011242;28;20366;-48
2022/03/19 04:26:37;;;;;;;16.92;6.50;;;4.60;88.00;;;;;;5010935;28;20438;-47
2022/03/19 04:29:05;;;;;;;13.82;7.00;;;4.70;87.70;;;;;;5010550;28;20095;-47
2022/03/19 04:31:32;;;;;;;25.58;6.78;;;4.70;87.20;;;;;;5011379;28;20025;-47
2022/03/19 04:34:00;;;;;;;12.70;4.95;;;4.70;86.70;;;;;;5010842;28;20033;-47
2022/03/19 04:36:34;;;;;;;17.40;5.13;;;4.70;86.50;;;;;;5010707;28;20097;-47
2022/03/19 04:39:02;;;;;;;20.65;5.82;;;4.60;86.50;;;;;;5011156;28;20370;-48
2022/03/19 04:41:30;;;;;;;14.38;6.13;;;4.60;86.30;;;;;;5011413;28;20040;-49
2022/03/19 04:43:58;;;;;;;17.98;5.40;;;4.50;86.30;;;;;;5009671;28;20045;-50
2022/03/19 04:46:24;;;;;;;15.48;6.03;;;4.50;86.20;;;;;;5009884;28;20347;-50
2022/03/19 04:48:52;;;;;;;18.42;7.10;;;4.50;86.10;;;;;;5009721;28;20030;-49
2022/03/19 04:51:20;;;;;;;24.00;8.30;;;4.40;85.90;;;;;;5010273;28;20037;-47
2022/03/19 04:53:50;;;;;;;13.60;5.70;;;4.40;86.20;;;;;;4993830;28;20043;-47
2022/03/19 04:56:19;;;;;;;15.38;6.50;;;4.30;86.20;;;;;;5009661;28;20167;-47
2022/03/19 04:58:45;;;;;;;12.77;5.53;;;4.20;86.30;;;;;;5009143;28;20026;-47
2022/03/19 05:01:12;;;;;;;16.67;5.50;;;4.20;86.50;;;;;;5009252;28;20363;-48
2022/03/19 05:03:41;;;;;;;18.17;5.93;;;4.20;86.40;;;;;;4993075;28;20041;-47
2022/03/19 05:06:08;;;;;;;11.20;6.07;;;4.20;86.30;;;;;;5009863;28;20467;-47
2022/03/19 05:08:37;;;;;;;18.38;6.63;;;4.00;86.30;;;;;;5010526;28;20042;-48
2022/03/19 05:11:17;;;;;;;21.70;6.00;;;4.00;86.30;;;;;;5009668;28;20510;-47
2022/03/19 05:14:01;;;;;;;13.55;6.15;;;3.90;86.50;;;;;;5010301;28;20065;-48
2022/03/19 05:16:28;;;;;;;13.60;4.93;;;3.90;86.60;;;;;;5010618;28;20467;-48
2022/03/19 05:18:54;;;;;;;15.07;5.30;;;3.90;86.70;;;;;;5009854;28;20038;-47
2022/03/19 05:21:24;;;;;;;16.45;5.63;;;3.80;86.70;;;;;;5010474;28;20660;-48
2022/03/19 05:23:53;;;;;;;16.00;5.50;;;3.80;86.80;;;;;;5010093;28;20517;-50
2022/03/19 05:26:20;;;;;;;24.23;5.82;;;3.80;86.80;;;;;;5010278;28;20030;-48
2022/03/19 05:28:47;;;;;;;18.27;5.38;;;3.80;86.70;;;;;;5010020;28;20087;-48
2022/03/19 05:31:14;;;;;;;16.70;5.22;;;3.70;86.60;;;;;;5009773;28;20458;-48
2022/03/19 05:36:29;;;;;;;23.85;6.32;;;3.70;86.70;;;;;;5007681;28;20490;-48
2022/03/19 05:38:55;;;;;;;20.00;5.25;;;3.70;86.70;;;;;;5009167;28;20034;-48
2022/03/19 05:41:24;;;;;;;19.08;5.57;;;3.70;86.70;;;;;;5008864;28;20037;-47
2022/03/19 05:43:53;;;;;;;14.15;5.05;;;3.70;86.70;;;;;;5010073;28;20022;-47
2022/03/19 05:46:20;;;;;;;24.17;6.40;;;3.70;86.60;;;;;;5010025;28;20120;-47
2022/03/19 05:48:47;;;;;;;12.55;4.05;;;3.70;86.40;;;;;;5009871;28;20680;-48
2022/03/19 05:51:14;;;;;;;13.45;5.40;;;3.70;86.20;;;;;;5009198;28;20474;-49
2022/03/19 05:53:44;;;;;;;11.40;4.65;;;3.80;86.10;;;;;;5009509;28;20516;-48
2022/03/19 05:56:09;;;;;;;;;;;3.80;86.00;;;;;;5009528;28;20034;-47
2022/03/19 05:58:38;;;;;;;17.17;5.70;;;3.80;86.20;;;;;;5013841;28;20376;-47
2022/03/19 06:01:05;;;;;;;14.60;4.80;;;3.70;86.00;;;;;;5012713;28;20474;-48
2022/03/19 06:03:31;;;;;;;13.48;4.78;;;3.70;86.00;;;;;;5012526;28;20030;-51
2022/03/19 06:05:58;;;;;;;17.27;5.15;;;3.70;86.00;;;;;;5013915;28;20108;-51
2022/03/19 06:08:26;;;;;;;17.40;4.95;;;3.80;85.90;;;;;;5013922;28;20040;-47
2022/03/19 06:10:56;;;;;;;16.20;6.18;;;3.80;85.90;;;;;;5012714;28;20352;-47
2022/03/19 06:13:26;;;;;;;12.73;4.55;;;3.80;85.70;;;;;;5013247;28;20135;-47
2022/03/19 06:15:52;;;;;;;14.77;5.50;;;3.80;85.70;;;;;;5013914;28;20036;-48
2022/03/19 06:18:18;;;;;;;18.10;4.85;;;3.80;85.80;;;;;;5013577;28;20032;-47
2022/03/19 06:20:45;;;;;;;10.80;3.80;;;3.80;85.80;;;;;;5012979;28;20021;-48
2022/03/19 06:23:12;;;;;;;17.27;5.15;;;3.90;85.80;;;;;;5012099;28;20022;-47
2022/03/19 06:25:40;;;;;;;14.95;5.50;;;3.90;85.70;;;;;;5012822;28;20113;-49
2022/03/19 06:28:06;;;;;;;11.40;5.32;;;3.90;85.70;;;;;;5012959;28;20045;-48
2022/03/19 06:30:37;;;;;;;11.80;4.68;;;3.90;85.60;;;;;;5013127;28;20073;-46
2022/03/19 06:33:09;;;;;;;12.02;4.35;;;3.90;85.60;;;;;;5013386;28;20129;-47
2022/03/19 06:38:25;;;;;;;13.52;4.30;;;3.90;85.60;;;;;;5012745;28;20052;-47
2022/03/19 06:40:52;;;;;;;17.70;5.57;;;3.90;85.40;;;;;;5011756;28;20137;-47
2022/03/19 06:43:19;;;;;;;10.70;4.50;;;4.00;85.50;;;;;;5013054;28;20463;-47
2022/03/19 06:45:45;;;;;;;13.25;5.70;;;4.00;85.40;;;;;;5012683;28;20105;-47
2022/03/19 06:48:12;;;;;;;13.07;4.78;;;4.10;85.40;;;;;;5012745;28;20108;-50
2022/03/19 06:50:39;;;;;;;12.80;4.00;;;4.20;85.10;;;;;;5012927;28;20402;-47
2022/03/19 06:53:06;;;;;;;16.40;5.03;;;4.20;85.20;;;;;;5012442;28;20050;-47
2022/03/19 06:55:34;;;;;;;16.90;6.30;;;4.40;85.10;;;;;;5011661;28;20022;-51
2022/03/19 06:58:01;;;;;;;12.50;4.13;;;4.50;84.80;;;;;;5012373;28;20018;-47
2022/03/19 07:00:28;;;;;;;16.20;4.05;;;4.60;84.00;;;;;;5010963;28;20044;-49
2022/03/19 07:02:56;;;;;;;13.02;4.18;;;4.70;83.60;;;;;;5011620;28;20096;-47
2022/03/19 07:05:31;;;;;;;14.63;4.28;;;4.80;83.10;;;;;;5009091;28;20033;-48
2022/03/19 07:08:00;;;;;;;21.40;4.68;;;4.90;82.70;;;;;;5009984;28;20033;-47
2022/03/19 07:10:29;;;;;;;13.40;4.10;;;4.90;82.30;;;;;;5008726;28;20593;-46
2022/03/19 07:12:57;;;;;;;17.33;3.92;;;5.10;82.10;;;;;;5010258;28;20067;-47
2022/03/19 07:15:27;;;;;;;12.13;4.13;;;5.20;81.50;;;;;;5010845;28;20034;-46
2022/03/19 07:17:55;;;;;;;16.27;4.20;;;5.20;81.90;;;;;;5009882;28;20030;-47
2022/03/19 07:20:22;;;;;;;15.13;4.13;;;5.30;81.50;;;;;;5010873;28;20034;-48
2022/03/19 07:22:58;;;;;;;16.15;3.65;;;5.40;80.70;;;;;;5010820;28;20088;-48
2022/03/19 07:25:29;;;;;;;13.25;4.47;;;5.50;80.10;;;;;;5009676;28;20059;-47
2022/03/19 07:27:58;;;;;;;16.13;3.55;;;5.60;80.30;;;;;;5010500;28;20026;-46
2022/03/19 07:30:26;;;;;;;8.90;3.33;;;5.70;80.20;;;;;;5010854;28;20030;-48
2022/03/19 07:32:54;;;;;;;15.32;3.70;;;5.80;80.00;;;;;;4994031;28;20045;-45
2022/03/19 07:35:20;;;;;;;11.55;4.18;;;5.90;80.50;;;;;;5011591;28;20076;-46
2022/03/19 07:37:48;;;;;;;10.32;3.80;;;6.00;80.00;;;;;;4998191;28;20050;-45
2022/03/19 07:41:45;;;;;;;11.70;4.25;;;6.20;80.20;;;;;;5011724;28;20478;-46
2022/03/19 07:43:08;;;;;;;10.30;4.18;;;6.30;79.90;;;;;;4998003;28;20056;-43
2022/03/19 07:45:38;;;;;;;13.63;4.50;;;6.50;79.70;;;;;;5010948;28;20092;-44
2022/03/19 07:48:04;;;;;;;12.38;4.60;;;6.80;79.40;;;;;;5010350;28;20096;-44
2022/03/19 07:50:33;;;;;;;14.68;4.82;;;7.10;79.40;;;;;;5010685;28;20034;-43
2022/03/19 07:53:11;;;;;;;13.30;3.97;;;7.30;77.10;;;;;;5011508;28;20490;-43
2022/03/19 07:55:36;;;;;;;15.73;5.78;;;7.50;76.30;;;;;;5011184;28;20026;-44
2022/03/19 07:58:04;;;;;;;13.15;4.55;;;7.60;76.10;;;;;;5010300;28;20048;-44
2022/03/19 08:00:31;;;;;;;20.00;4.10;;;7.80;76.40;;;;;;5009606;28;20117;-44
2022/03/19 08:02:58;;;;;;;11.05;4.25;;;7.90;74.80;;;;;;5009778;28;20080;-43
2022/03/19 08:05:25;;;;;;;14.15;3.83;;;8.00;74.50;;;;;;5010480;28;20064;-42
2022/03/19 08:07:53;;;;;;;20.65;4.85;;;8.40;73.40;;;;;;5011156;28;20388;-41
2022/03/19 08:10:21;;;;;;;13.18;3.92;;;8.40;72.10;;;;;;5009641;28;20026;-42
2022/03/19 08:12:49;;;;;;;11.00;4.28;;;8.70;73.60;;;;;;5009665;28;20399;-42
2022/03/19 08:15:17;;;;;;;15.23;4.20;;;9.00;71.40;;;;;;5011538;28;20022;-42
2022/03/19 08:17:44;;;;;;;11.43;4.28;;;9.20;71.80;;;;;;5011550;28;20463;-42
2022/03/19 08:20:11;;;;;;;12.55;4.40;;;9.50;71.20;;;;;;5008337;28;20044;-41
2022/03/19 08:22:39;;;;;;;12.63;4.93;;;9.80;69.00;;;;;;5008835;28;20041;-41
2022/03/19 08:25:06;;;;;;;11.85;4.22;;;9.80;68.10;;;;;;5009782;28;20022;-41
2022/03/19 08:27:34;;;;;;;16.77;3.83;;;10.10;67.30;;;;;;5009390;28;20053;-45
2022/03/19 08:30:03;;;;;;;11.35;4.38;;;10.10;67.10;;;;;;5010766;28;20030;-42
2022/03/19 08:32:31;;;;;;;11.80;3.78;;;9.80;67.40;;;;;;5008733;28;20037;-41
2022/03/19 08:34:58;;;;;;;10.63;4.53;;;9.90;66.10;;;;;;5007529;28;20065;-41
2022/03/19 08:37:26;;;;;;;13.13;3.95;;;9.90;67.40;;;;;;5009221;28;20298;-44
2022/03/19 08:42:41;;;;;;;17.45;4.38;;;9.80;67.70;;;;;;5006776;28;20084;-42
2022/03/19 08:45:09;;;;;;;12.77;4.30;;;9.90;67.10;;;;;;5009300;28;20079;-41
2022/03/19 08:47:36;;;;;;;13.18;4.20;;;10.10;67.50;;;;;;5008678;28;20060;-43
2022/03/19 08:50:03;;;;;;;9.63;3.90;;;10.20;66.80;;;;;;5008662;28;20057;-41
2022/03/19 08:52:29;;;;;;;11.70;4.30;;;10.10;66.40;;;;;;5010263;28;20448;-41
2022/03/19 08:54:58;;;;;;;11.13;3.88;;;10.20;65.80;;;;;;5010213;28;20036;-41
2022/03/19 08:57:25;;;;;;;10.25;4.03;;;10.40;65.60;;;;;;5010034;28;20038;-42
2022/03/19 08:59:53;;;;;;;12.50;4.15;;;10.30;65.00;;;;;;5011055;28;20466;-42
2022/03/19 09:02:19;;;;;;;11.18;3.55;;;10.40;64.90;;;;;;5009388;28;20030;-42
2022/03/19 09:04:45;;;;;;;6.93;2.85;;;10.10;65.70;;;;;;5010493;28;20026;-42
2022/03/19 09:07:18;;;;;;;11.80;3.45;;;10.00;65.30;;;;;;5009253;28;20030;-42
2022/03/19 09:09:45;;;;;;;10.70;4.35;;;10.20;66.10;;;;;;5009465;28;20044;-44
2022/03/19 09:12:12;;;;;;;7.78;2.95;;;10.10;66.40;;;;;;5010401;28;20037;-45
2022/03/19 09:14:37;;;;;;;15.43;3.50;;;10.30;66.50;;;;;;5009273;28;20052;-42
2022/03/19 09:17:05;;;;;;;9.77;4.30;;;10.30;64.60;;;;;;5009566;28;20030;-43
2022/03/19 09:19:31;;;;;;;13.73;3.85;;;10.30;66.10;;;;;;5010015;28;20472;-42
2022/03/19 09:21:57;;;;;;;11.00;3.90;;;10.40;65.80;;;;;;5009672;28;20048;-41
2022/03/19 09:24:24;;;;;;;11.82;4.03;;;10.40;65.80;;;;;;5008893;28;20351;-41
2022/03/19 09:26:51;;;;;;;10.55;3.30;;;10.40;67.70;;;;;;5009029;28;20022;-41
2022/03/19 09:29:17;;;;;;;8.48;2.67;;;10.40;66.40;;;;;;5009740;28;20125;-42
2022/03/19 09:31:45;;;;;;;12.88;3.83;;;10.20;66.40;;;;;;5008311;28;20577;-41
2022/03/19 09:34:12;;;;;;;7.68;3.03;;;10.30;67.40;;;;;;5009818;28;20022;-41
2022/03/19 09:36:41;;;;;;;7.32;2.88;;;10.20;66.40;;;;;;5008445;28;20100;-41
2022/03/19 09:39:10;;;;;;;11.25;3.30;;;10.30;68.50;;;;;;5009838;28;20022;-41
2022/03/19 09:41:39;;;;;;;10.88;4.13;;;10.20;67.60;;;;;;5008570;28;20088;-41
2022/03/19 09:44:08;;;;;;;7.93;2.72;;;10.10;68.40;;;;;;5009680;28;20397;-42
2022/03/19 09:46:35;;;;;;;12.75;2.75;;;10.10;69.20;;;;;;5008834;28;20042;-43
2022/03/19 09:49:01;;;;;;;14.27;3.58;;;10.00;69.20;;;;;;5009445;28;20040;-41
2022/03/19 09:51:35;;;;;;;19.45;4.30;;;10.20;68.90;;;;;;4991502;28;20033;-41
2022/03/19 09:54:03;;;;;;;9.23;2.92;;;10.40;68.90;;;;;;4993677;28;20128;-45
2022/03/19 09:56:33;;;;;;;10.82;3.75;;;10.50;69.60;;;;;;5008639;28;20034;-42
2022/03/19 09:58:59;;;;;;;10.65;3.05;;;10.60;70.40;;;;;;5009906;28;20061;-41
2022/03/19 10:01:30;;;;;;;9.57;3.47;;;10.90;69.80;;;;;;5008217;28;20040;-42
2022/03/19 10:04:02;;;;;;;7.95;2.83;;;11.00;69.00;;;;;;5009617;28;20080;-42
2022/03/19 10:09:23;;;;;;;9.02;3.65;;;11.00;68.40;;;;;;5006280;28;20038;-43
2022/03/19 10:11:54;;;;;;;10.07;2.90;;;10.90;68.90;;;;;;5007897;28;20427;-41
2022/03/19 10:14:23;;;;;;;7.97;3.17;;;10.90;68.80;;;;;;5008012;28;20507;-42
2022/03/19 10:16:52;;;;;;;12.95;3.35;;;10.70;68.10;;;;;;5007001;28;20026;-42
2022/03/19 10:19:22;;;;;;;9.32;3.50;;;10.70;68.70;;;;;;5006755;28;20051;-44
2022/03/19 10:21:49;;;;;;;7.68;2.20;;;11.00;70.30;;;;;;5005579;28;20455;-43
2022/03/19 10:24:28;;;;;;;10.43;2.70;;;11.20;69.00;;;;;;5007712;28;20042;-44
2022/03/19 10:26:57;;;;;;;10.02;3.05;;;11.20;68.80;;;;;;5007244;28;20026;-44
2022/03/19 10:29:41;;;;;;;10.48;4.00;;;11.20;67.40;;;;;;5007999;28;20037;-41
2022/03/19 10:32:14;;;;;;;11.65;2.35;;;11.20;68.30;;;;;;5006746;28;20026;-41
2022/03/19 10:34:44;;;;;;;8.95;3.40;;;11.40;66.30;;;;;;5007665;28;20026;-43
2022/03/19 10:37:10;;;;;;;7.40;2.88;;;11.30;66.70;;;;;;5007968;28;20025;-41
2022/03/19 10:39:44;;;;;;;10.35;3.28;;;11.10;65.90;;;;;;5006537;28;20121;-41
2022/03/19 10:42:17;;;;;;;7.70;2.47;;;11.30;66.60;;;;;;5005409;28;20045;-41
2022/03/19 10:44:47;;;;;;;15.95;3.90;;;11.40;66.30;;;;;;5010248;28;20034;-42
2022/03/19 10:47:24;;;;;;;10.45;2.92;;;11.40;64.60;;;;;;5010476;28;20029;-41
2022/03/19 10:49:59;;;;;;;10.20;3.67;;;11.00;64.50;;;;;;5010518;28;20022;-41
2022/03/19 10:52:27;;;;;;;10.60;4.28;;;11.00;66.00;;;;;;5009632;28;20030;-42
2022/03/19 10:54:55;;;;;;;9.55;2.80;;;10.90;66.50;;;;;;4976859;28;20030;-41
2022/03/19 10:57:23;;;;;;;11.75;3.10;;;10.90;67.20;;;;;;5011110;28;20041;-42
2022/03/19 10:59:50;;;;;;;9.57;3.10;;;11.00;66.70;;;;;;5010649;28;20026;-42
2022/03/19 11:02:21;;;;;;;10.60;3.60;;;11.00;66.80;;;;;;5010197;28;20030;-43
2022/03/19 11:04:50;;;;;;;11.63;4.25;;;10.90;65.80;;;;;;5011576;28;20080;-43
2022/03/19 11:07:20;;;;;;;12.63;3.28;;;10.90;65.60;;;;;;5011227;28;20041;-43
2022/03/19 11:09:53;;;;;;;8.20;2.38;;;11.00;66.50;;;;;;4994099;28;20363;-42
2022/03/19 11:12:23;;;;;;;10.63;3.17;;;11.00;66.10;;;;;;5009995;28;20030;-42
2022/03/19 11:14:54;;;;;;;8.15;2.65;;;11.10;67.30;;;;;;4993966;28;20359;-43
2022/03/19 11:17:30;;;;;;;6.93;2.85;;;11.10;68.20;;;;;;5010663;28;20040;-41
2022/03/19 11:20:16;;;;;;;10.10;3.60;;;11.10;69.50;;;;;;4985163;28;20057;-42
2022/03/19 11:22:47;;;;;;;11.38;4.25;;;11.20;68.90;;;;;;5009974;28;20034;-41
2022/03/19 11:25:31;;;;;;;11.23;4.60;;;11.10;70.00;;;;;;5006751;28;20033;-42
2022/03/19 11:28:15;;;;;;;7.78;3.38;;;11.00;68.60;;;;;;4998863;28;20459;-42
2022/03/19 11:30:58;;;;;;;10.05;4.15;;;11.00;69.90;;;;;;5022832;28;20037;-42
2022/03/19 11:33:26;;;;;;;11.57;4.30;;;10.90;70.00;;;;;;4998969;28;20412;-42
2022/03/19 11:36:19;;;;;;;13.57;4.63;;;10.90;70.50;;;;;;5002369;28;20044;-41
2022/03/19 11:38:54;;;;;;;14.65;3.92;;;10.90;70.60;;;;;;5001813;28;20567;-42
2022/03/19 11:41:32;;;;;;;16.92;4.97;;;10.80;70.70;;;;;;4985644;28;20126;-43
2022/03/19 11:44:19;;;;;;;12.23;4.32;;;10.70;71.80;;;;;;5005436;28;20432;-41
2022/03/19 11:47:06;;;;;;;11.85;4.50;;;10.70;71.90;;;;;;5002341;28;20031;-42
2022/03/19 11:50:10;;;;;;;11.93;4.70;;;10.70;72.20;;;;;;5001399;28;20430;-41
2022/03/19 11:52:48;;;;;;;10.65;4.15;;;10.60;72.40;;;;;;4998979;28;20121;-42
2022/03/19 11:55:18;;;;;;;10.32;4.32;;;10.60;71.90;;;;;;5004163;28;20045;-43
2022/03/19 11:58:05;;;;;;;13.10;4.30;;;10.70;71.60;;;;;;5023529;28;20402;-41
2022/03/19 12:00:35;;;;;;;10.90;3.78;;;10.80;71.90;;;;;;5008935;28;20057;-42
2022/03/19 12:03:05;;;;;;;;;;;10.90;70.80;;;;;;4993086;28;20351;-43
2022/03/19 12:05:37;;;;;;;13.55;4.20;;;10.80;71.20;;;;;;5006160;28;19909;-42
2022/03/19 12:08:37;;;;;;;11.55;4.03;;;10.70;70.50;;;;;;5007963;28;20026;-43
2022/03/19 12:11:16;;;;;;;13.60;4.13;;;10.70;71.10;;;;;;5009888;28;20451;-45
2022/03/19 12:13:52;;;;;;;9.85;3.85;;;10.80;70.20;;;;;;5010403;28;20054;-45
2022/03/19 12:16:48;;;;;;;12.88;4.18;;;10.80;70.70;;;;;;5010678;28;20037;-43
2022/03/19 12:19:13;;;;;;;12.23;3.70;;;10.70;69.90;;;;;;4988981;28;20062;-43
2022/03/19 12:21:43;;;;;;;9.38;3.42;;;10.70;70.40;;;;;;4988761;28;20052;-41
2022/03/19 12:24:32;;;;;;;8.13;3.38;;;10.60;70.20;;;;;;4988838;28;20376;-41
2022/03/19 12:27:01;;;;;;;8.60;4.10;;;10.60;69.50;;;;;;4982192;28;20063;-43
2022/03/19 12:29:32;;;;;;;7.35;3.20;;;10.60;69.20;;;;;;4988246;28;20523;-42
2022/03/19 12:32:01;;;;;;;9.93;3.25;;;10.70;68.80;;;;;;4973220;28;20382;-41
2022/03/19 12:34:30;;;;;;;7.72;3.63;;;10.60;68.10;;;;;;4988140;28;20030;-42
2022/03/19 12:37:00;;;;;;;9.57;3.60;;;10.70;70.70;;;;;;4988066;28;20635;-41
2022/03/19 12:39:30;;;;;;;10.00;3.78;;;10.70;71.70;;;;;;4949843;28;20514;-42
2022/03/19 12:41:57;;;;;;;14.77;4.57;;;10.60;72.30;;;;;;4969444;28;20126;-43
2022/03/19 12:44:51;;;;;;;13.23;3.97;;;10.50;73.10;;;;;;4970977;28;20073;-43
2022/03/19 12:47:19;;;;;;;10.55;3.67;;;10.60;73.60;;;;;;4988397;28;20053;-42
2022/03/19 12:49:54;;;;;;;11.60;3.75;;;10.60;72.60;;;;;;4988206;28;20045;-42
2022/03/19 12:52:27;;;;;;;10.23;4.18;;;10.70;72.90;;;;;;4973048;28;20476;-42
2022/03/19 12:54:55;;;;;;;12.65;3.47;;;10.70;72.80;;;;;;4976916;28;20062;-42
2022/03/19 12:57:27;;;;;;;9.77;4.03;;;10.80;71.70;;;;;;5010440;28;20036;-42
2022/03/19 12:59:56;;;;;;;9.00;3.85;;;10.80;72.10;;;;;;5010496;28;20025;-43
2022/03/19 13:02:25;;;;;;;7.97;2.97;;;10.80;71.60;;;;;;5009676;28;20358;-42
2022/03/19 13:04:53;;;;;;;8.50;3.42;;;10.70;71.90;;;;;;5009194;28;20073;-42
2022/03/19 13:07:24;;;;;;;9.57;3.38;;;10.70;72.50;;;;;;5008662;28;20029;-42
2022/03/19 13:09:51;;;;;;;10.95;3.50;;;10.60;72.30;;;;;;5008880;28;20332;-43